Time;durP1;ratioP1;P1;durP2;ratioP2;P2;SDS_P1;SDS_P2;PMS_P1;PMS_P2;Temp;Humidity;BMP_temperature;BMP_pressure;BME280_temperature;BME280_humidity;BME280_pressure;Samples;Min_cycle;Max_cycle;Signal;HPM_P1;HPM_P2
2022/05/27 00:01:14;;;;;;;11.38;3.28;;;14.40;99.90;;;;;;5038931;28;20056;-68
2022/05/27 00:03:40;;;;;;;6.00;1.95;;;14.40;99.90;;;;;;5034787;28;20045;-68
2022/05/27 00:06:06;;;;;;;9.82;1.92;;;14.40;99.90;;;;;;5037140;28;20033;-69
2022/05/27 00:08:31;;;;;;;4.93;2.15;;;14.40;99.90;;;;;;5025552;28;20408;-68
2022/05/27 00:10:59;;;;;;;7.07;1.80;;;14.40;99.90;;;;;;5037939;28;20119;-69
2022/05/27 00:13:26;;;;;;;3.35;1.35;;;14.40;99.90;;;;;;5012861;28;20033;-68
2022/05/27 00:15:51;;;;;;;3.45;1.30;;;14.40;99.90;;;;;;5033998;28;20575;-68
2022/05/27 00:18:17;;;;;;;8.05;1.65;;;14.40;99.90;;;;;;5029532;28;20098;-68
2022/05/27 00:20:43;;;;;;;4.30;1.50;;;14.30;99.90;;;;;;5024484;28;20142;-68
2022/05/27 00:23:09;;;;;;;7.63;1.95;;;14.30;99.90;;;;;;5039788;28;20488;-68
2022/05/27 00:25:35;;;;;;;7.30;1.58;;;14.30;99.90;;;;;;5035449;28;20414;-68
2022/05/27 00:28:00;;;;;;;7.75;1.88;;;14.30;99.90;;;;;;5044822;28;20041;-68
2022/05/27 00:30:27;;;;;;;6.77;1.83;;;14.30;99.90;;;;;;5039694;28;20041;-68
2022/05/27 00:32:53;;;;;;;3.42;1.20;;;14.30;99.90;;;;;;5029329;28;20596;-68
2022/05/27 00:35:19;;;;;;;5.88;1.40;;;14.20;99.90;;;;;;5034646;28;20438;-68
2022/05/27 00:37:44;;;;;;;11.00;2.03;;;14.20;99.90;;;;;;5042989;28;20037;-68
2022/05/27 00:40:14;;;;;;;6.85;1.45;;;14.10;99.90;;;;;;5042868;28;20231;-69
2022/05/27 00:42:41;;;;;;;7.30;1.90;;;14.20;99.90;;;;;;5038967;28;20037;-68
2022/05/27 00:45:13;;;;;;;6.53;1.30;;;14.10;99.90;;;;;;5042628;28;20064;-68
2022/05/27 00:47:39;;;;;;;9.48;1.42;;;14.10;99.90;;;;;;5021266;28;20036;-68
2022/05/27 00:50:08;;;;;;;6.60;1.67;;;14.10;99.90;;;;;;5038822;28;20041;-68
2022/05/27 00:52:37;;;;;;;11.73;1.85;;;14.00;99.90;;;;;;5023800;28;20501;-69
2022/05/27 00:55:08;;;;;;;9.15;2.33;;;14.00;99.90;;;;;;5038909;28;20041;-68
2022/05/27 00:58:09;;;;;;;8.38;1.67;;;14.00;99.90;;;;;;5021592;28;20037;-68
2022/05/27 01:00:34;;;;;;;8.73;1.52;;;13.90;99.90;;;;;;5018676;28;20048;-68
2022/05/27 01:03:01;;;;;;;8.70;1.35;;;13.90;99.90;;;;;;5017514;28;20041;-68
2022/05/27 01:05:27;;;;;;;5.53;1.85;;;13.90;99.90;;;;;;5046184;28;20061;-68
2022/05/27 01:07:56;;;;;;;4.65;1.23;;;13.90;99.90;;;;;;5023871;28;20095;-69
2022/05/27 01:10:23;;;;;;;6.00;1.52;;;13.90;99.90;;;;;;5038028;28;20044;-68
2022/05/27 01:13:13;;;;;;;8.98;1.70;;;13.80;99.90;;;;;;5038181;28;20115;-69
2022/05/27 01:16:10;;;;;;;8.73;1.70;;;13.70;99.90;;;;;;5039150;28;20045;-68
2022/05/27 01:22:49;;;;;;;10.25;1.85;;;13.70;99.90;;;;;;5042548;28;20045;-68
2022/05/27 01:26:11;;;;;;;7.55;2.67;;;13.70;99.90;;;;;;4964577;28;20558;-69
2022/05/27 01:28:52;;;;;;;6.53;1.73;;;13.70;99.90;;;;;;5018586;28;20051;-68
2022/05/27 01:31:43;;;;;;;8.48;1.38;;;13.60;99.90;;;;;;5037873;28;20119;-68
2022/05/27 01:34:17;;;;;;;11.02;1.95;;;13.60;99.90;;;;;;5017720;28;20448;-69
2022/05/27 01:36:53;;;;;;;7.93;1.98;;;13.50;99.90;;;;;;5020956;28;20140;-68
2022/05/27 01:39:33;;;;;;;3.42;1.40;;;13.50;99.90;;;;;;5038597;28;20056;-68
2022/05/27 01:42:19;;;;;;;9.27;1.55;;;13.50;99.90;;;;;;5035112;28;20048;-68
2022/05/27 01:45:06;;;;;;;5.88;1.38;;;13.50;99.90;;;;;;5042432;28;20032;-68
2022/05/27 01:47:49;;;;;;;4.33;2.13;;;13.40;99.90;;;;;;5041389;28;20418;-69
2022/05/27 01:50:34;;;;;;;5.68;1.33;;;13.40;99.90;;;;;;5046794;28;20189;-68
2022/05/27 01:53:25;;;;;;;5.75;1.27;;;13.30;99.90;;;;;;5024668;28;20135;-68
2022/05/27 01:56:18;;;;;;;8.30;1.40;;;13.30;99.90;;;;;;5041576;28;20048;-68
2022/05/27 01:58:49;;;;;;;7.38;2.10;;;13.30;99.90;;;;;;5044708;28;20045;-68
2022/05/27 02:01:24;;;;;;;11.85;1.50;;;13.30;99.90;;;;;;5024370;28;20095;-68
2022/05/27 02:04:02;;;;;;;9.70;2.05;;;13.30;99.90;;;;;;5046624;28;20477;-68
2022/05/27 02:06:38;;;;;;;4.50;1.95;;;13.30;99.90;;;;;;5041608;28;20145;-68
2022/05/27 02:09:22;;;;;;;9.50;1.70;;;13.30;99.90;;;;;;5019159;28;20056;-68
2022/05/27 02:11:53;;;;;;;3.88;1.20;;;13.30;99.90;;;;;;5040225;28;20060;-68
2022/05/27 02:14:43;;;;;;;5.93;1.75;;;13.30;99.90;;;;;;5026766;28;20056;-68
2022/05/27 02:17:15;;;;;;;5.63;1.77;;;13.20;99.90;;;;;;5039775;28;20102;-68
2022/05/27 02:19:53;;;;;;;5.20;1.90;;;13.20;99.90;;;;;;5040494;28;20136;-68
2022/05/27 02:22:33;;;;;;;3.88;1.42;;;13.20;99.90;;;;;;5009701;28;20061;-68
2022/05/27 02:25:04;;;;;;;9.98;1.83;;;13.20;99.90;;;;;;5040481;28;20037;-68
2022/05/27 02:27:43;;;;;;;10.70;2.05;;;13.20;99.90;;;;;;5026588;28;20059;-68
2022/05/27 02:30:12;;;;;;;4.90;1.70;;;13.20;99.90;;;;;;5018464;28;20037;-68
2022/05/27 02:32:42;;;;;;;3.53;1.10;;;13.20;99.90;;;;;;5020182;28;20052;-68
2022/05/27 02:35:21;;;;;;;7.05;1.45;;;13.10;99.90;;;;;;5021312;28;20521;-68
2022/05/27 02:37:54;;;;;;;6.47;1.52;;;13.10;99.90;;;;;;5043743;28;20405;-68
2022/05/27 02:40:28;;;;;;;8.15;1.60;;;13.10;99.90;;;;;;5043634;28;20441;-68
2022/05/27 02:43:16;;;;;;;4.35;1.02;;;13.10;99.90;;;;;;5040745;28;20099;-68
2022/05/27 02:45:53;;;;;;;11.38;1.48;;;13.10;99.90;;;;;;5037961;28;20071;-69
2022/05/27 02:48:25;;;;;;;;;;;13.00;99.90;;;;;;5030005;28;20064;-68
2022/05/27 02:51:13;;;;;;;6.65;1.70;;;13.00;99.90;;;;;;5028185;28;19917;-70
2022/05/27 02:54:03;;;;;;;10.40;2.20;;;12.90;99.90;;;;;;5044221;28;20072;-70
2022/05/27 02:56:39;;;;;;;8.40;1.75;;;12.90;99.90;;;;;;5026571;28;20037;-70
2022/05/27 02:59:07;;;;;;;5.25;2.13;;;12.90;99.90;;;;;;5034189;28;20116;-68
2022/05/27 03:01:33;;;;;;;9.07;1.98;;;12.90;99.90;;;;;;5038943;28;20281;-68
2022/05/27 03:03:58;;;;;;;7.57;1.30;;;12.90;99.90;;;;;;5045072;28;20044;-68
2022/05/27 03:06:27;;;;;;;9.17;2.13;;;12.80;99.90;;;;;;5036973;28;20037;-68
2022/05/27 03:09:17;;;;;;;7.07;1.30;;;12.80;99.90;;;;;;5033381;28;20434;-68
2022/05/27 03:12:12;;;;;;;5.45;1.33;;;12.80;99.90;;;;;;5040464;28;20098;-68
2022/05/27 03:15:02;;;;;;;3.53;1.42;;;12.80;99.90;;;;;;5030971;28;20254;-68
2022/05/27 03:17:43;;;;;;;6.78;1.60;;;12.80;99.90;;;;;;5043242;28;20520;-69
2022/05/27 03:20:33;;;;;;;3.47;1.17;;;12.80;99.90;;;;;;5040814;28;20104;-68
2022/05/27 03:23:31;;;;;;;10.32;1.75;;;12.70;99.90;;;;;;5034380;28;20493;-68
2022/05/27 03:26:30;;;;;;;5.75;1.58;;;12.70;99.90;;;;;;5042563;28;20544;-68
2022/05/27 03:29:22;;;;;;;9.82;2.05;;;12.70;99.90;;;;;;5039042;28;20044;-68
2022/05/27 03:32:24;;;;;;;5.47;1.63;;;12.70;99.90;;;;;;5027330;28;20060;-68
2022/05/27 03:35:00;;;;;;;6.22;1.35;;;12.70;99.90;;;;;;5039668;28;20048;-68
2022/05/27 03:37:33;;;;;;;7.03;1.85;;;12.70;99.90;;;;;;5043200;28;20044;-68
2022/05/27 03:40:21;;;;;;;8.20;1.30;;;12.70;99.90;;;;;;5029204;28;20559;-69
2022/05/27 03:42:47;;;;;;;9.73;2.45;;;12.70;99.90;;;;;;5042509;28;20042;-68
2022/05/27 03:45:16;;;;;;;8.45;2.15;;;12.60;99.90;;;;;;5033210;28;20124;-68
2022/05/27 03:47:44;;;;;;;11.63;1.77;;;12.60;99.90;;;;;;5027914;28;20124;-68
2022/05/27 03:50:16;;;;;;;5.45;1.90;;;12.60;99.90;;;;;;5040097;28;20060;-68
2022/05/27 03:52:46;;;;;;;8.50;1.80;;;12.60;99.90;;;;;;5024042;28;20128;-69
2022/05/27 03:55:14;;;;;;;4.75;1.70;;;12.60;99.90;;;;;;5020880;28;20049;-68
2022/05/27 03:57:40;;;;;;;7.32;1.90;;;12.60;99.90;;;;;;5041634;28;20047;-68
2022/05/27 04:00:07;;;;;;;10.57;1.83;;;12.60;99.90;;;;;;5034614;28;20028;-69
2022/05/27 04:02:33;;;;;;;12.52;2.10;;;12.60;99.90;;;;;;5023156;28;20041;-69
2022/05/27 04:04:59;;;;;;;10.60;1.70;;;12.60;99.90;;;;;;5040809;28;20367;-68
2022/05/27 04:07:24;;;;;;;12.80;2.65;;;12.60;99.90;;;;;;5050992;28;20044;-68
2022/05/27 04:09:50;;;;;;;5.90;1.20;;;12.60;99.90;;;;;;5043770;28;20422;-68
2022/05/27 04:12:15;;;;;;;5.07;1.30;;;12.60;99.90;;;;;;5045715;28;20052;-68
2022/05/27 04:14:41;;;;;;;6.37;1.53;;;12.60;99.90;;;;;;5029027;28;22288;-68
2022/05/27 04:19:51;;;;;;;8.30;1.67;;;12.60;99.90;;;;;;5040150;28;20041;-69
2022/05/27 04:22:16;;;;;;;6.70;2.00;;;12.60;99.90;;;;;;5019594;28;20095;-68
2022/05/27 04:24:42;;;;;;;8.07;1.27;;;12.60;99.90;;;;;;5041219;28;20047;-68
2022/05/27 04:27:13;;;;;;;3.03;1.33;;;12.60;99.90;;;;;;5023714;28;20283;-68
2022/05/27 04:29:45;;;;;;;6.63;1.60;;;12.60;99.90;;;;;;5042092;28;20033;-68
2022/05/27 04:32:11;;;;;;;7.57;1.58;;;12.60;99.90;;;;;;5040052;28;20056;-69
2022/05/27 04:34:40;;;;;;;7.05;1.80;;;12.60;99.90;;;;;;5027551;28;20052;-68
2022/05/27 04:37:07;;;;;;;9.00;2.10;;;12.60;99.90;;;;;;5025482;28;20086;-68
2022/05/27 04:39:33;;;;;;;;;;;12.60;99.90;;;;;;5038269;28;20033;-68
2022/05/27 04:41:59;;;;;;;8.50;1.20;;;12.60;99.90;;;;;;5021106;28;20294;-69
2022/05/27 04:44:25;;;;;;;6.03;1.38;;;12.60;99.90;;;;;;5040287;28;20045;-69
2022/05/27 04:46:51;;;;;;;7.05;1.58;;;12.60;99.90;;;;;;5036733;28;20600;-69
2022/05/27 04:52:01;;;;;;;14.88;2.15;;;12.60;99.90;;;;;;5041458;28;20053;-69
2022/05/27 04:54:27;;;;;;;12.90;1.70;;;12.50;99.90;;;;;;5027752;28;20048;-69
2022/05/27 04:56:54;;;;;;;5.22;1.33;;;12.50;99.90;;;;;;5036042;28;20493;-69
2022/05/27 04:59:20;;;;;;;5.68;1.25;;;12.50;99.90;;;;;;5036480;28;20551;-69
2022/05/27 05:01:46;;;;;;;7.13;1.48;;;12.50;99.90;;;;;;5034793;28;20049;-69
2022/05/27 05:04:11;;;;;;;5.30;1.17;;;12.50;99.90;;;;;;5040321;28;20644;-69
2022/05/27 05:06:37;;;;;;;10.83;2.80;;;12.50;99.90;;;;;;5041084;28;20032;-69
2022/05/27 05:09:03;;;;;;;13.25;1.77;;;12.50;99.90;;;;;;5043192;28;20041;-69
2022/05/27 05:11:29;;;;;;;7.85;1.63;;;12.40;99.90;;;;;;5023906;28;20128;-69
2022/05/27 05:13:54;;;;;;;4.70;1.27;;;12.40;99.90;;;;;;5032233;28;20123;-69
2022/05/27 05:16:20;;;;;;;3.80;1.20;;;12.40;99.90;;;;;;5035574;28;20401;-69
2022/05/27 05:18:46;;;;;;;11.80;1.40;;;12.40;99.90;;;;;;5040532;28;20470;-69
2022/05/27 05:21:13;;;;;;;8.97;1.03;;;12.40;99.90;;;;;;5041326;28;20079;-69
2022/05/27 05:23:39;;;;;;;5.13;1.60;;;12.40;99.90;;;;;;5036070;28;20037;-69
2022/05/27 05:26:05;;;;;;;5.70;1.13;;;12.40;99.90;;;;;;5028899;28;20102;-69
2022/05/27 05:28:30;;;;;;;6.68;1.25;;;12.50;99.90;;;;;;5028747;28;20037;-69
2022/05/27 05:30:56;;;;;;;6.60;1.40;;;12.50;99.90;;;;;;5042095;28;20548;-69
2022/05/27 05:33:22;;;;;;;8.43;1.37;;;12.50;99.90;;;;;;5042153;28;20291;-69
2022/05/27 05:35:47;;;;;;;8.90;2.50;;;12.50;99.90;;;;;;5045834;28;20079;-69
2022/05/27 05:38:13;;;;;;;5.17;1.90;;;12.50;99.90;;;;;;5026846;28;20034;-71
2022/05/27 05:40:39;;;;;;;5.05;1.88;;;12.60;99.90;;;;;;5029254;28;20034;-74
2022/05/27 05:43:05;;;;;;;5.65;1.60;;;12.60;99.90;;;;;;5030230;28;20140;-69
2022/05/27 05:45:31;;;;;;;6.20;1.55;;;12.70;99.90;;;;;;5025279;28;20037;-68
2022/05/27 05:47:57;;;;;;;1.93;1.00;;;12.70;99.90;;;;;;5045396;28;20032;-68
2022/05/27 05:50:23;;;;;;;7.50;1.60;;;12.70;99.90;;;;;;5043970;28;20040;-70
2022/05/27 05:52:49;;;;;;;8.52;1.70;;;12.80;99.90;;;;;;5027945;28;20040;-69
2022/05/27 05:55:16;;;;;;;8.77;1.30;;;12.80;99.90;;;;;;5043858;28;20044;-68
2022/05/27 05:57:44;;;;;;;7.30;1.17;;;12.80;99.90;;;;;;5021674;28;20210;-68
2022/05/27 06:00:12;;;;;;;8.60;1.45;;;12.80;99.90;;;;;;5039801;28;20120;-68
2022/05/27 06:02:38;;;;;;;4.53;1.45;;;12.90;99.90;;;;;;5038939;28;20045;-68
2022/05/27 06:05:04;;;;;;;12.50;1.85;;;12.90;99.90;;;;;;5030418;28;20436;-71
2022/05/27 06:07:31;;;;;;;6.25;1.42;;;12.90;99.90;;;;;;5031342;28;20489;-69
2022/05/27 06:09:58;;;;;;;7.53;1.48;;;12.90;99.90;;;;;;5041823;28;20048;-68
2022/05/27 06:12:24;;;;;;;8.63;1.35;;;12.90;99.90;;;;;;5031550;28;20482;-68
2022/05/27 06:14:53;;;;;;;6.22;1.20;;;12.90;99.90;;;;;;5031275;28;20040;-68
2022/05/27 06:17:22;;;;;;;4.15;1.17;;;13.00;99.90;;;;;;5019681;28;20049;-68
2022/05/27 06:19:48;;;;;;;10.38;1.38;;;13.00;99.90;;;;;;5042409;28;20049;-69
2022/05/27 06:22:14;;;;;;;5.82;1.55;;;13.00;99.90;;;;;;5025901;28;20098;-69
2022/05/27 06:24:39;;;;;;;6.43;1.50;;;13.00;99.90;;;;;;5039037;28;20034;-68
2022/05/27 06:27:07;;;;;;;5.40;1.37;;;13.00;99.90;;;;;;5013538;28;20294;-68
2022/05/27 06:35:01;;;;;;;9.38;1.98;;;13.10;99.90;;;;;;5027750;28;20091;-69
2022/05/27 06:37:28;;;;;;;4.05;1.17;;;13.20;99.90;;;;;;5026827;28;20084;-68
2022/05/27 06:39:54;;;;;;;;;;;13.20;99.90;;;;;;5045675;28;20045;-69
2022/05/27 06:42:20;;;;;;;6.38;1.60;;;13.10;99.90;;;;;;5026520;28;19943;-69
2022/05/27 06:44:45;;;;;;;6.45;1.80;;;13.10;99.90;;;;;;5026625;28;20094;-68
2022/05/27 06:47:13;;;;;;;9.83;1.87;;;13.10;99.90;;;;;;5040122;28;20068;-69
2022/05/27 06:49:40;;;;;;;5.53;1.30;;;13.10;99.90;;;;;;5042821;28;20124;-69
2022/05/27 06:52:07;;;;;;;6.13;1.80;;;13.20;99.90;;;;;;5032065;28;20405;-68
2022/05/27 06:54:34;;;;;;;6.85;1.60;;;13.20;99.90;;;;;;5034461;28;20489;-69
2022/05/27 06:57:00;;;;;;;4.38;1.25;;;13.30;99.90;;;;;;5018807;28;20084;-69
2022/05/27 06:59:26;;;;;;;7.90;1.40;;;13.30;99.90;;;;;;5041960;28;20040;-69
2022/05/27 07:01:54;;;;;;;10.90;1.27;;;13.30;99.90;;;;;;5033089;28;20486;-68
2022/05/27 07:04:20;;;;;;;5.15;1.35;;;13.30;99.90;;;;;;5040878;28;20122;-68
2022/05/27 07:06:47;;;;;;;10.83;2.57;;;13.30;99.90;;;;;;5038400;28;20049;-69
2022/05/27 07:09:16;;;;;;;7.47;1.75;;;13.40;99.90;;;;;;5019898;28;20051;-68
2022/05/27 07:11:44;;;;;;;8.13;1.45;;;13.40;99.90;;;;;;5035952;28;20037;-68
2022/05/27 07:14:11;;;;;;;7.40;1.88;;;13.50;99.90;;;;;;5038044;28;20387;-68
2022/05/27 07:16:38;;;;;;;10.63;2.00;;;13.50;99.90;;;;;;5043471;22;20262;-69
2022/05/27 07:19:03;;;;;;;;;;;13.50;99.90;;;;;;5043556;28;20429;-68
2022/05/27 07:21:29;;;;;;;8.75;1.48;;;13.60;99.90;;;;;;5048037;28;19921;-68
2022/05/27 07:23:56;;;;;;;4.93;1.20;;;13.70;99.90;;;;;;5024370;28;20037;-68
2022/05/27 07:26:23;;;;;;;10.63;1.75;;;13.80;99.90;;;;;;5047000;28;20220;-68
2022/05/27 07:28:49;;;;;;;5.50;1.33;;;13.80;99.90;;;;;;5030659;28;20037;-68
2022/05/27 07:31:17;;;;;;;7.10;1.75;;;13.70;99.90;;;;;;5042292;28;20037;-68
2022/05/27 07:33:44;;;;;;;6.00;1.55;;;13.70;99.90;;;;;;5046068;28;20091;-68
2022/05/27 07:36:10;;;;;;;5.43;1.45;;;13.70;99.90;;;;;;5053082;28;20515;-69
2022/05/27 07:38:36;;;;;;;;;;;13.70;99.90;;;;;;5050589;28;20073;-68
2022/05/27 07:41:02;;;;;;;4.90;1.90;;;13.80;99.90;;;;;;5027423;28;19967;-68
2022/05/27 07:43:28;;;;;;;6.30;1.35;;;13.70;99.90;;;;;;5043708;28;20124;-68
2022/05/27 07:45:53;;;;;;;6.93;1.60;;;13.70;99.90;;;;;;5042729;28;20041;-68
2022/05/27 07:48:19;;;;;;;4.80;2.00;;;13.70;99.90;;;;;;5029529;28;20380;-69
2022/05/27 07:50:45;;;;;;;7.87;2.17;;;13.60;99.90;;;;;;5028115;28;20117;-68
2022/05/27 07:53:11;;;;;;;6.43;1.33;;;13.60;99.90;;;;;;5042475;28;20288;-69
2022/05/27 07:55:37;;;;;;;10.23;1.75;;;13.60;99.90;;;;;;5039412;28;20041;-69
2022/05/27 07:58:03;;;;;;;6.30;1.20;;;13.60;99.90;;;;;;5048161;28;20125;-68
2022/05/27 08:00:32;;;;;;;12.23;2.22;;;13.60;99.90;;;;;;5047960;28;20136;-69
2022/05/27 08:02:58;;;;;;;7.63;1.65;;;13.60;99.90;;;;;;5041394;28;20121;-68
2022/05/27 08:05:26;;;;;;;4.60;1.40;;;13.70;99.90;;;;;;5039182;28;20041;-69
2022/05/27 08:07:54;;;;;;;9.65;1.77;;;13.70;99.90;;;;;;5036070;28;20045;-68
2022/05/27 08:10:22;;;;;;;7.90;1.23;;;13.70;99.90;;;;;;5038631;28;20500;-68
2022/05/27 08:12:48;;;;;;;10.07;1.40;;;13.80;99.90;;;;;;5046428;28;20040;-68
2022/05/27 08:15:14;;;;;;;9.53;2.40;;;13.80;99.90;;;;;;5045509;28;20045;-68
2022/05/27 08:17:40;;;;;;;10.52;1.80;;;13.90;99.90;;;;;;5046205;28;20041;-68
2022/05/27 08:20:09;;;;;;;9.15;1.65;;;13.90;99.90;;;;;;5047499;28;20044;-68
2022/05/27 08:22:35;;;;;;;6.32;1.35;;;14.00;99.90;;;;;;5045797;28;20056;-68
2022/05/27 08:25:01;;;;;;;6.45;1.33;;;14.00;99.90;;;;;;5051459;28;20459;-69
2022/05/27 08:27:27;;;;;;;5.07;1.17;;;14.00;99.90;;;;;;5043597;28;20114;-69
2022/05/27 08:29:53;;;;;;;7.38;1.40;;;14.10;99.90;;;;;;5047696;28;20120;-68
2022/05/27 08:32:18;;;;;;;8.90;2.08;;;14.20;99.90;;;;;;5047454;28;20068;-69
2022/05/27 08:40:36;;;;;;;4.10;1.33;;;14.10;99.90;;;;;;5031474;28;20049;-68
2022/05/27 08:43:30;;;;;;;5.78;1.40;;;14.20;99.90;;;;;;5047960;28;20044;-68
2022/05/27 08:46:49;;;;;;;13.45;1.88;;;14.20;99.90;;;;;;5045438;28;20041;-68
2022/05/27 08:49:21;;;;;;;8.52;1.80;;;14.20;99.90;;;;;;4946539;29;20050;-68
2022/05/27 08:51:57;;;;;;;10.85;1.52;;;14.20;99.90;;;;;;5031915;28;20072;-68
2022/05/27 08:54:28;;;;;;;6.13;1.42;;;14.20;99.90;;;;;;5040862;28;20421;-68
2022/05/27 08:59:57;;;;;;;7.65;1.90;;;14.30;99.90;;;;;;5036064;28;20132;-68
2022/05/27 09:02:35;;;;;;;6.65;1.50;;;14.40;99.90;;;;;;5050984;28;20041;-68
2022/05/27 09:05:00;;;;;;;7.28;1.63;;;14.40;99.90;;;;;;5022608;28;20063;-68
2022/05/27 09:08:01;;;;;;;11.03;1.10;;;14.40;99.90;;;;;;5048680;28;20507;-68
2022/05/27 09:10:36;;;;;;;7.60;1.77;;;14.40;99.90;;;;;;5040296;28;20056;-68
2022/05/27 09:13:20;;;;;;;9.27;1.35;;;14.40;99.90;;;;;;5035825;28;20049;-68
2022/05/27 09:16:00;;;;;;;5.75;1.27;;;14.50;99.90;;;;;;5042828;28;20037;-68
2022/05/27 09:18:48;;;;;;;7.18;1.17;;;14.50;96.50;;;;;;5041481;28;20474;-68
2022/05/27 09:21:43;;;;;;;6.35;1.05;;;14.60;99.90;;;;;;5038579;28;20037;-68
2022/05/27 09:24:21;;;;;;;6.22;1.63;;;14.60;99.90;;;;;;5030303;28;20448;-68
2022/05/27 09:26:54;;;;;;;5.60;1.35;;;14.60;99.90;;;;;;5045504;28;20123;-69
2022/05/27 09:29:52;;;;;;;5.65;1.27;;;14.70;99.90;;;;;;5029474;28;20159;-68
2022/05/27 09:32:25;;;;;;;4.05;0.93;;;14.60;98.20;;;;;;5044392;28;20041;-69
2022/05/27 09:34:52;;;;;;;11.07;1.38;;;14.60;99.90;;;;;;5043565;28;20056;-68
2022/05/27 09:37:27;;;;;;;9.93;2.83;;;14.60;99.90;;;;;;5049750;28;20045;-68
2022/05/27 09:40:01;;;;;;;9.85;1.77;;;14.60;99.90;;;;;;5048055;28;20106;-69
2022/05/27 09:42:50;;;;;;;7.70;1.25;;;14.70;99.90;;;;;;5046203;28;20044;-68
2022/05/27 09:45:16;;;;;;;5.90;1.58;;;14.70;99.90;;;;;;5050873;28;20041;-68
2022/05/27 09:47:42;;;;;;;;;;;14.70;99.90;;;;;;5049200;28;20195;-69
2022/05/27 09:50:31;;;;;;;9.63;1.65;;;14.80;99.90;;;;;;5050510;28;20297;-68
2022/05/27 09:52:58;;;;;;;6.53;1.90;;;14.70;99.90;;;;;;5041678;28;20061;-69
2022/05/27 09:55:52;;;;;;;5.25;1.00;;;14.60;99.90;;;;;;5029884;28;20060;-68
2022/05/27 09:58:27;;;;;;;7.50;1.40;;;14.60;99.90;;;;;;5045243;28;20038;-67
2022/05/27 10:00:53;;;;;;;3.55;0.90;;;14.60;99.90;;;;;;5050006;28;20195;-69
2022/05/27 10:03:36;;;;;;;8.50;1.58;;;14.60;99.90;;;;;;5047677;28;20232;-68
2022/05/27 10:06:12;;;;;;;5.97;1.13;;;14.70;99.90;;;;;;5048574;28;20115;-68
2022/05/27 10:08:37;;;;;;;7.80;1.85;;;14.70;98.90;;;;;;5048131;28;20095;-68
2022/05/27 10:11:31;;;;;;;7.40;1.60;;;14.80;98.10;;;;;;5049144;28;20424;-69
2022/05/27 10:14:20;;;;;;;4.45;0.95;;;14.80;99.90;;;;;;5029400;28;20160;-68
2022/05/27 10:17:12;;;;;;;7.35;1.63;;;15.00;98.80;;;;;;5032950;28;20552;-68
2022/05/27 10:19:46;;;;;;;6.70;1.35;;;15.00;98.30;;;;;;5049595;28;20036;-68
2022/05/27 10:22:23;;;;;;;7.32;1.40;;;14.90;99.00;;;;;;5034774;28;20118;-69
2022/05/27 10:25:00;;;;;;;;;;;15.00;99.90;;;;;;5040466;28;20501;-68
2022/05/27 10:27:36;;;;;;;6.85;1.45;;;14.90;99.90;;;;;;5039754;28;19931;-69
2022/05/27 10:30:09;;;;;;;7.45;1.55;;;15.00;99.90;;;;;;5049441;28;20041;-68
2022/05/27 10:32:43;;;;;;;5.22;1.50;;;15.00;99.90;;;;;;5035263;28;20118;-67
2022/05/27 10:35:30;;;;;;;9.43;1.70;;;15.10;99.20;;;;;;5047751;28;20103;-68
2022/05/27 10:38:11;;;;;;;7.70;1.27;;;15.00;98.60;;;;;;5033696;28;20103;-68
2022/05/27 10:41:07;;;;;;;5.03;1.70;;;15.00;99.90;;;;;;5045178;28;20045;-68
2022/05/27 10:44:12;;;;;;;10.50;1.88;;;15.10;99.90;;;;;;5046802;28;20052;-68
2022/05/27 10:46:48;;;;;;;9.57;2.00;;;15.10;99.90;;;;;;5043397;28;20045;-69
2022/05/27 10:49:50;;;;;;;4.88;1.30;;;15.00;99.90;;;;;;5038970;28;20522;-68
2022/05/27 10:52:29;;;;;;;7.38;1.10;;;15.00;99.90;;;;;;5027069;28;20055;-69
2022/05/27 10:55:30;;;;;;;5.13;1.02;;;15.00;99.90;;;;;;5040136;28;20550;-69
2022/05/27 11:04:26;;;;;;;4.32;1.38;;;14.90;99.90;;;;;;5047762;28;20397;-69
2022/05/27 11:06:59;;;;;;;6.45;1.40;;;14.90;99.50;;;;;;5048268;28;20049;-69
2022/05/27 11:09:44;;;;;;;6.45;1.48;;;14.90;99.90;;;;;;5041524;28;20040;-68
2022/05/27 11:12:19;;;;;;;12.05;1.70;;;14.90;99.90;;;;;;5048743;28;20041;-69
2022/05/27 11:15:11;;;;;;;11.13;2.03;;;14.90;99.90;;;;;;5043762;28;20041;-68
2022/05/27 11:18:05;;;;;;;9.68;1.40;;;15.00;99.90;;;;;;5029173;28;20053;-68
2022/05/27 11:20:57;;;;;;;8.15;1.70;;;15.00;99.90;;;;;;5050722;28;20056;-69
2022/05/27 11:23:48;;;;;;;8.10;1.50;;;14.80;99.90;;;;;;5047982;28;20052;-69
2022/05/27 11:26:47;;;;;;;7.28;1.67;;;14.70;99.90;;;;;;5048810;28;20052;-68
2022/05/27 11:29:52;;;;;;;5.38;1.42;;;14.70;99.90;;;;;;5041307;28;20512;-69
2022/05/27 11:32:54;;;;;;;8.25;1.33;;;14.90;99.90;;;;;;5030032;28;20044;-69
2022/05/27 11:35:31;;;;;;;8.13;1.55;;;15.00;99.90;;;;;;5046157;28;20137;-69
2022/05/27 11:38:09;;;;;;;7.53;1.60;;;15.00;99.90;;;;;;5042127;28;20045;-68
2022/05/27 11:41:32;;;;;;;10.43;2.17;;;14.90;99.90;;;;;;5046282;28;20062;-68
2022/05/27 11:44:16;;;;;;;6.68;1.83;;;14.70;99.90;;;;;;4963732;28;20136;-68
2022/05/27 11:46:53;;;;;;;6.43;1.30;;;14.70;99.90;;;;;;4969657;28;20042;-69
2022/05/27 11:49:39;;;;;;;5.95;1.40;;;14.80;99.90;;;;;;5025824;28;20053;-68
2022/05/27 11:52:36;;;;;;;9.68;1.48;;;14.80;99.90;;;;;;5035659;28;20029;-68
2022/05/27 11:55:36;;;;;;;6.97;1.20;;;14.60;99.90;;;;;;5022951;28;20063;-69
2022/05/27 11:58:12;;;;;;;7.85;1.75;;;14.50;99.90;;;;;;5048087;28;20396;-68
2022/05/27 12:00:45;;;;;;;6.40;1.30;;;14.50;99.90;;;;;;5044816;28;20534;-68
2022/05/27 12:03:19;;;;;;;8.80;1.73;;;14.60;99.90;;;;;;5038516;28;20098;-68
2022/05/27 12:05:52;;;;;;;5.75;1.25;;;14.60;99.90;;;;;;5048516;28;20485;-69
2022/05/27 12:08:39;;;;;;;14.13;1.65;;;14.60;99.90;;;;;;5048226;28;20088;-69
2022/05/27 12:11:19;;;;;;;7.63;2.50;;;14.70;99.90;;;;;;5048072;28;20087;-68
2022/05/27 12:14:02;;;;;;;11.02;2.03;;;14.60;99.90;;;;;;5035299;28;20103;-68
2022/05/27 12:16:31;;;;;;;8.85;1.70;;;14.50;99.90;;;;;;5038998;28;20041;-68
2022/05/27 12:19:12;;;;;;;4.63;2.10;;;14.50;99.90;;;;;;5030906;28;20045;-68
2022/05/27 12:21:42;;;;;;;8.13;1.52;;;14.70;99.90;;;;;;5037074;28;20437;-68
2022/05/27 12:24:31;;;;;;;11.63;2.15;;;14.70;99.90;;;;;;5044246;28;20091;-68
2022/05/27 12:26:58;;;;;;;8.27;1.88;;;14.60;99.90;;;;;;5037826;28;20328;-68
2022/05/27 12:29:27;;;;;;;9.02;1.40;;;14.60;99.90;;;;;;5044330;28;20037;-68
2022/05/27 12:31:54;;;;;;;9.73;1.55;;;14.60;99.90;;;;;;5030958;28;20041;-69
2022/05/27 12:34:26;;;;;;;10.55;1.45;;;14.50;99.90;;;;;;5035340;28;20099;-68
2022/05/27 12:36:52;;;;;;;9.02;1.75;;;14.40;99.90;;;;;;5039087;28;20056;-69
2022/05/27 12:39:27;;;;;;;6.32;1.10;;;14.50;99.90;;;;;;5038584;28;20473;-68
2022/05/27 12:42:17;;;;;;;9.90;1.63;;;14.60;99.90;;;;;;5045995;28;20068;-68
2022/05/27 12:44:44;;;;;;;5.28;1.33;;;14.60;99.90;;;;;;5045732;28;20115;-68
2022/05/27 12:47:22;;;;;;;7.55;1.52;;;14.50;99.90;;;;;;5045347;28;20045;-68
2022/05/27 12:50:00;;;;;;;9.30;1.58;;;14.60;99.90;;;;;;5043833;28;20116;-68
2022/05/27 12:52:29;;;;;;;11.90;2.10;;;14.80;99.90;;;;;;5045491;28;20051;-69
2022/05/27 12:54:56;;;;;;;8.85;1.48;;;14.90;99.90;;;;;;5044934;28;20079;-68
2022/05/27 13:03:44;;;;;;;9.73;1.70;;;15.20;99.90;;;;;;5039054;28;20049;-69
2022/05/27 13:06:14;;;;;;;7.32;1.63;;;15.10;99.90;;;;;;5041096;28;20082;-69
2022/05/27 13:08:48;;;;;;;7.82;1.85;;;15.10;99.90;;;;;;5042714;28;20417;-69
2022/05/27 13:11:37;;;;;;;13.55;2.05;;;15.10;99.90;;;;;;5040087;28;20033;-69
2022/05/27 13:14:03;;;;;;;9.52;1.63;;;15.20;99.90;;;;;;5045403;28;20045;-68
2022/05/27 13:16:33;;;;;;;7.37;1.23;;;15.30;99.90;;;;;;5045264;28;20354;-68
2022/05/27 13:19:08;;;;;;;6.97;1.60;;;15.30;99.90;;;;;;5036208;28;20647;-68
2022/05/27 13:21:41;;;;;;;10.20;1.52;;;15.30;99.90;;;;;;5038468;28;20099;-68
2022/05/27 13:24:12;;;;;;;6.55;1.70;;;15.20;99.90;;;;;;5040294;28;20086;-68
2022/05/27 13:26:47;;;;;;;5.55;1.17;;;15.20;99.90;;;;;;5041548;28;20563;-68
2022/05/27 13:29:38;;;;;;;7.95;1.60;;;15.30;99.90;;;;;;5039897;28;20048;-68
2022/05/27 13:32:13;;;;;;;5.63;1.10;;;15.20;99.90;;;;;;5042580;28;20079;-68
2022/05/27 13:34:58;;;;;;;11.43;1.38;;;15.10;99.90;;;;;;5046811;28;20385;-69
2022/05/27 13:37:34;;;;;;;5.32;1.63;;;15.00;99.90;;;;;;5035938;28;20047;-69
2022/05/27 13:40:05;;;;;;;9.73;1.25;;;15.20;99.90;;;;;;5043231;28;20187;-68
2022/05/27 13:42:45;;;;;;;8.20;1.52;;;15.20;99.90;;;;;;5042167;28;20049;-69
2022/05/27 13:45:12;;;;;;;3.67;1.10;;;15.30;99.90;;;;;;5035914;28;20396;-68
2022/05/27 13:47:48;;;;;;;4.93;1.23;;;15.10;99.90;;;;;;5024070;28;20041;-69
2022/05/27 13:50:37;;;;;;;6.57;1.20;;;15.10;99.90;;;;;;5047197;28;20037;-69
2022/05/27 13:53:24;;;;;;;10.90;1.45;;;15.30;99.90;;;;;;5050190;28;20040;-69
2022/05/27 13:56:04;;;;;;;7.53;1.40;;;15.40;99.90;;;;;;5046579;28;20044;-68
2022/05/27 13:58:31;;;;;;;6.20;1.20;;;15.40;99.90;;;;;;5034392;28;20051;-68
2022/05/27 14:01:05;;;;;;;7.53;1.40;;;15.30;99.90;;;;;;5045856;28;20463;-69